sensor_id;sensor_type;location;lat;lon;timestamp;pressure;altitude;pressure_sealevel;temperature;humidity
19890;BME280;10107;51.198;6.824;2024-03-29T00:02:26;66119.56;;;7.52;100.00
19890;BME280;10107;51.198;6.824;2024-03-29T00:06:27;66125.06;;;7.50;100.00
19890;BME280;10107;51.198;6.824;2024-03-29T00:10:30;66120.41;;;7.50;100.00
19890;BME280;10107;51.198;6.824;2024-03-29T00:14:31;66142.28;;;7.53;100.00
19890;BME280;10107;51.198;6.824;2024-03-29T00:18:32;66126.50;;;7.49;100.00
19890;BME280;10107;51.198;6.824;2024-03-29T00:22:33;66108.44;;;7.47;100.00
19890;BME280;10107;51.198;6.824;2024-03-29T00:26:35;66129.19;;;7.53;100.00
19890;BME280;10107;51.198;6.824;2024-03-29T00:30:35;66154.84;;;7.58;100.00
19890;BME280;10107;51.198;6.824;2024-03-29T00:34:36;66115.56;;;7.58;100.00
19890;BME280;10107;51.198;6.824;2024-03-29T00:38:37;66137.94;;;7.57;100.00
19890;BME280;10107;51.198;6.824;2024-03-29T00:42:39;66133.88;;;7.58;100.00
19890;BME280;10107;51.198;6.824;2024-03-29T00:46:39;66128.69;;;7.62;100.00
19890;BME280;10107;51.198;6.824;2024-03-29T00:50:40;66146.75;;;7.64;100.00
19890;BME280;10107;51.198;6.824;2024-03-29T00:54:41;66135.91;;;7.57;100.00
19890;BME280;10107;51.198;6.824;2024-03-29T00:58:43;66155.38;;;7.53;100.00
19890;BME280;10107;51.198;6.824;2024-03-29T01:02:44;66134.41;;;7.53;100.00
19890;BME280;10107;51.198;6.824;2024-03-29T01:06:44;66118.06;;;7.48;100.00
19890;BME280;10107;51.198;6.824;2024-03-29T01:10:45;66109.22;;;7.41;100.00
19890;BME280;10107;51.198;6.824;2024-03-29T01:14:47;66087.06;;;7.35;100.00
19890;BME280;10107;51.198;6.824;2024-03-29T01:18:48;66080.31;;;7.31;100.00
19890;BME280;10107;51.198;6.824;2024-03-29T01:22:48;66110.28;;;7.32;100.00
19890;BME280;10107;51.198;6.824;2024-03-29T01:26:49;66091.72;;;7.34;100.00
19890;BME280;10107;51.198;6.824;2024-03-29T01:30:54;66106.34;;;7.43;100.00
19890;BME280;10107;51.198;6.824;2024-03-29T01:34:55;66143.31;;;7.45;100.00
19890;BME280;10107;51.198;6.824;2024-03-29T01:38:56;66119.56;;;7.52;100.00
19890;BME280;10107;51.198;6.824;2024-03-29T01:42:57;66152.53;;;7.60;100.00
19890;BME280;10107;51.198;6.824;2024-03-29T01:46:59;66114.50;;;7.66;100.00
19890;BME280;10107;51.198;6.824;2024-03-29T01:51:00;66118.94;;;7.72;100.00
19890;BME280;10107;51.198;6.824;2024-03-29T01:55:02;66181.81;;;7.77;100.00
19890;BME280;10107;51.198;6.824;2024-03-29T01:59:04;66157.16;;;7.80;100.00
19890;BME280;10107;51.198;6.824;2024-03-29T02:03:07;66167.09;;;7.84;100.00
19890;BME280;10107;51.198;6.824;2024-03-29T02:07:09;66132.50;;;7.88;100.00
19890;BME280;10107;51.198;6.824;2024-03-29T02:11:12;66149.44;;;7.94;100.00
19890;BME280;10107;51.198;6.824;2024-03-29T02:15:14;66146.28;;;7.98;100.00
19890;BME280;10107;51.198;6.824;2024-03-29T02:19:18;66159.47;;;8.03;100.00
19890;BME280;10107;51.198;6.824;2024-03-29T02:23:23;66154.31;;;8.12;98.68
19890;BME280;10107;51.198;6.824;2024-03-29T02:27:29;66215.94;;;8.27;98.04
19890;BME280;10107;51.198;6.824;2024-03-29T02:31:31;66192.66;;;8.29;97.07
19890;BME280;10107;51.198;6.824;2024-03-29T02:35:32;66239.53;;;8.27;97.62
19890;BME280;10107;51.198;6.824;2024-03-29T02:39:34;66187.38;;;8.25;98.20
19890;BME280;10107;51.198;6.824;2024-03-29T02:43:37;66188.81;;;8.24;96.93
19890;BME280;10107;51.198;6.824;2024-03-29T02:47:39;66233.06;;;8.21;98.82
19890;BME280;10107;51.198;6.824;2024-03-29T02:51:40;66180.31;;;8.19;99.14
19890;BME280;10107;51.198;6.824;2024-03-29T02:55:41;66214.31;;;8.14;100.00
19890;BME280;10107;51.198;6.824;2024-03-29T02:59:44;66130.41;;;8.09;100.00
19890;BME280;10107;51.198;6.824;2024-03-29T03:03:46;66152.72;;;7.99;100.00
19890;BME280;10107;51.198;6.824;2024-03-29T03:07:47;66146.78;;;7.89;100.00
19890;BME280;10107;51.198;6.824;2024-03-29T03:12:06;66151.00;;;7.77;100.00
19890;BME280;10107;51.198;6.824;2024-03-29T03:16:09;66153.81;;;7.70;100.00
19890;BME280;10107;51.198;6.824;2024-03-29T03:20:11;66106.63;;;7.66;100.00
19890;BME280;10107;51.198;6.824;2024-03-29T03:24:14;66153.19;;;7.65;100.00
19890;BME280;10107;51.198;6.824;2024-03-29T03:28:15;66103.16;;;7.67;100.00
19890;BME280;10107;51.198;6.824;2024-03-29T03:32:18;66104.34;;;7.68;100.00
19890;BME280;10107;51.198;6.824;2024-03-29T03:36:20;66137.25;;;7.72;100.00
19890;BME280;10107;51.198;6.824;2024-03-29T03:40:21;66119.50;;;7.72;100.00
19890;BME280;10107;51.198;6.824;2024-03-29T03:44:23;66156.16;;;7.72;100.00
19890;BME280;10107;51.198;6.824;2024-03-29T03:48:26;66117.22;;;7.75;100.00
19890;BME280;10107;51.198;6.824;2024-03-29T03:52:29;66134.09;;;7.76;100.00
19890;BME280;10107;51.198;6.824;2024-03-29T03:56:30;66178.63;;;7.76;100.00
19890;BME280;10107;51.198;6.824;2024-03-29T04:00:32;66136.19;;;7.80;100.00
19890;BME280;10107;51.198;6.824;2024-03-29T04:04:35;66149.03;;;7.82;100.00
19890;BME280;10107;51.198;6.824;2024-03-29T04:08:37;66146.44;;;7.87;100.00
19890;BME280;10107;51.198;6.824;2024-03-29T04:12:38;66165.97;;;7.88;100.00
19890;BME280;10107;51.198;6.824;2024-03-29T04:16:40;66121.75;;;7.90;100.00
19890;BME280;10107;51.198;6.824;2024-03-29T04:20:43;66145.13;;;7.97;100.00
19890;BME280;10107;51.198;6.824;2024-03-29T04:24:45;66154.16;;;7.98;100.00
19890;BME280;10107;51.198;6.824;2024-03-29T04:28:46;66185.00;;;7.98;100.00
19890;BME280;10107;51.198;6.824;2024-03-29T04:32:48;66166.88;;;7.91;100.00
19890;BME280;10107;51.198;6.824;2024-03-29T04:36:51;66133.03;;;7.84;100.00
19890;BME280;10107;51.198;6.824;2024-03-29T04:40:54;66149.81;;;7.76;100.00
19890;BME280;10107;51.198;6.824;2024-03-29T04:44:56;66143.88;;;7.66;100.00
19890;BME280;10107;51.198;6.824;2024-03-29T04:48:57;66091.09;;;7.54;100.00
19890;BME280;10107;51.198;6.824;2024-03-29T04:53:00;66125.00;;;7.45;100.00
19890;BME280;10107;51.198;6.824;2024-03-29T04:57:02;66089.41;;;7.37;100.00
19890;BME280;10107;51.198;6.824;2024-03-29T05:01:06;66092.56;;;7.33;100.00
19890;BME280;10107;51.198;6.824;2024-03-29T05:05:08;66107.03;;;7.27;100.00
19890;BME280;10107;51.198;6.824;2024-03-29T05:09:11;66064.25;;;7.24;100.00
19890;BME280;10107;51.198;6.824;2024-03-29T05:13:13;66080.75;;;7.18;100.00
19890;BME280;10107;51.198;6.824;2024-03-29T05:17:14;66093.75;;;7.13;100.00
19890;BME280;10107;51.198;6.824;2024-03-29T05:21:17;66100.09;;;7.10;100.00
19890;BME280;10107;51.198;6.824;2024-03-29T05:25:20;66060.28;;;7.09;100.00
19890;BME280;10107;51.198;6.824;2024-03-29T05:29:21;66083.25;;;7.09;100.00
19890;BME280;10107;51.198;6.824;2024-03-29T05:33:23;66059.38;;;7.06;100.00
19890;BME280;10107;51.198;6.824;2024-03-29T05:37:24;66109.00;;;7.02;100.00
19890;BME280;10107;51.198;6.824;2024-03-29T05:41:27;66039.25;;;7.00;100.00
19890;BME280;10107;51.198;6.824;2024-03-29T05:45:31;66064.81;;;7.00;100.00
19890;BME280;10107;51.198;6.824;2024-03-29T05:49:32;66095.88;;;6.97;100.00
19890;BME280;10107;51.198;6.824;2024-03-29T05:53:34;66069.16;;;6.97;100.00
19890;BME280;10107;51.198;6.824;2024-03-29T05:57:37;66071.75;;;6.97;100.00
19890;BME280;10107;51.198;6.824;2024-03-29T06:01:41;66056.91;;;6.95;100.00
19890;BME280;10107;51.198;6.824;2024-03-29T06:05:43;66027.56;;;6.94;100.00
19890;BME280;10107;51.198;6.824;2024-03-29T06:09:44;66048.22;;;6.97;100.00
19890;BME280;10107;51.198;6.824;2024-03-29T06:13:47;66059.84;;;6.98;100.00
19890;BME280;10107;51.198;6.824;2024-03-29T06:18:07;66073.84;;;7.01;100.00
19890;BME280;10107;51.198;6.824;2024-03-29T06:22:09;66034.94;;;7.03;100.00
19890;BME280;10107;51.198;6.824;2024-03-29T06:26:11;66076.56;;;7.10;100.00
19890;BME280;10107;51.198;6.824;2024-03-29T06:30:15;66084.41;;;7.10;100.00
19890;BME280;10107;51.198;6.824;2024-03-29T06:34:17;66083.25;;;7.09;100.00
19890;BME280;10107;51.198;6.824;2024-03-29T06:38:18;66080.69;;;7.13;100.00
19890;BME280;10107;51.198;6.824;2024-03-29T06:42:20;66085.72;;;7.20;100.00
19890;BME280;10107;51.198;6.824;2024-03-29T06:46:23;66104.16;;;7.29;100.00
19890;BME280;10107;51.198;6.824;2024-03-29T06:50:24;66092.03;;;7.37;100.00
19890;BME280;10107;51.198;6.824;2024-03-29T06:54:26;66110.16;;;7.44;100.00
19890;BME280;10107;51.198;6.824;2024-03-29T06:58:28;66095.41;;;7.51;100.00
19890;BME280;10107;51.198;6.824;2024-03-29T07:02:31;66138.00;;;7.61;100.00
19890;BME280;10107;51.198;6.824;2024-03-29T07:06:32;66101.66;;;7.64;100.00
19890;BME280;10107;51.198;6.824;2024-03-29T07:10:34;66117.44;;;7.68;100.00
19890;BME280;10107;51.198;6.824;2024-03-29T07:14:35;66146.28;;;7.73;100.00
19890;BME280;10107;51.198;6.824;2024-03-29T07:18:39;66141.88;;;7.92;100.00
19890;BME280;10107;51.198;6.824;2024-03-29T07:22:40;66142.94;;;8.09;100.00
19890;BME280;10107;51.198;6.824;2024-03-29T07:26:42;66142.56;;;8.27;100.00
19890;BME280;10107;51.198;6.824;2024-03-29T07:30:44;66171.53;;;8.41;100.00
19890;BME280;10107;51.198;6.824;2024-03-29T07:34:46;66221.41;;;8.45;100.00
19890;BME280;10107;51.198;6.824;2024-03-29T07:38:48;66194.94;;;8.47;100.00
19890;BME280;10107;51.198;6.824;2024-03-29T07:42:50;66206.97;;;8.56;100.00
19890;BME280;10107;51.198;6.824;2024-03-29T07:46:51;66206.19;;;8.62;100.00
19890;BME280;10107;51.198;6.824;2024-03-29T07:50:54;66196.31;;;8.67;100.00
19890;BME280;10107;51.198;6.824;2024-03-29T07:54:56;66212.03;;;8.67;100.00
19890;BME280;10107;51.198;6.824;2024-03-29T07:58:57;66243.38;;;8.78;100.00
19890;BME280;10107;51.198;6.824;2024-03-29T08:02:59;66224.59;;;8.96;100.00
19890;BME280;10107;51.198;6.824;2024-03-29T08:07:02;66242.25;;;9.11;100.00
19890;BME280;10107;51.198;6.824;2024-03-29T08:11:04;66239.09;;;9.16;100.00
19890;BME280;10107;51.198;6.824;2024-03-29T08:15:06;66238.31;;;9.26;100.00
19890;BME280;10107;51.198;6.824;2024-03-29T08:19:08;66309.81;;;9.57;100.00
19890;BME280;10107;51.198;6.824;2024-03-29T08:23:11;66336.41;;;9.59;100.00
19890;BME280;10107;51.198;6.824;2024-03-29T08:27:13;66304.56;;;9.57;100.00
19890;BME280;10107;51.198;6.824;2024-03-29T08:31:15;66300.91;;;9.69;100.00
19890;BME280;10107;51.198;6.824;2024-03-29T08:35:16;66313.50;;;10.03;100.00
19890;BME280;10107;51.198;6.824;2024-03-29T08:39:19;66395.28;;;10.31;100.00
19890;BME280;10107;51.198;6.824;2024-03-29T08:43:21;66342.53;;;10.17;100.00
19890;BME280;10107;51.198;6.824;2024-03-29T08:47:23;66347.13;;;10.07;100.00
19890;BME280;10107;51.198;6.824;2024-03-29T08:51:24;66353.81;;;10.06;100.00
19890;BME280;10107;51.198;6.824;2024-03-29T08:55:27;66351.16;;;10.02;100.00
19890;BME280;10107;51.198;6.824;2024-03-29T08:59:29;66360.81;;;10.03;100.00
19890;BME280;10107;51.198;6.824;2024-03-29T09:03:31;66358.31;;;10.17;100.00
19890;BME280;10107;51.198;6.824;2024-03-29T09:07:32;66336.88;;;10.35;100.00
19890;BME280;10107;51.198;6.824;2024-03-29T09:11:35;66384.63;;;10.47;100.00
19890;BME280;10107;51.198;6.824;2024-03-29T09:15:37;66391.69;;;10.87;100.00
19890;BME280;10107;51.198;6.824;2024-03-29T09:19:39;66516.84;;;11.50;100.00
19890;BME280;10107;51.198;6.824;2024-03-29T09:23:40;66520.78;;;12.00;100.00
19890;BME280;10107;51.198;6.824;2024-03-29T09:27:46;66576.53;;;12.51;100.00
19890;BME280;10107;51.198;6.824;2024-03-29T09:31:48;66595.69;;;12.65;100.00
19890;BME280;10107;51.198;6.824;2024-03-29T09:35:50;66571.72;;;12.76;100.00
19890;BME280;10107;51.198;6.824;2024-03-29T09:39:54;66611.59;;;12.70;100.00
19890;BME280;10107;51.198;6.824;2024-03-29T09:43:59;66596.53;;;12.59;100.00
19890;BME280;10107;51.198;6.824;2024-03-29T09:48:03;66604.91;;;12.41;100.00
19890;BME280;10107;51.198;6.824;2024-03-29T09:52:05;66587.53;;;12.28;100.00
19890;BME280;10107;51.198;6.824;2024-03-29T09:56:08;66575.78;;;12.27;100.00
19890;BME280;10107;51.198;6.824;2024-03-29T10:00:15;66617.53;;;12.40;100.00
19890;BME280;10107;51.198;6.824;2024-03-29T10:04:20;66604.91;;;12.41;100.00
19890;BME280;10107;51.198;6.824;2024-03-29T10:08:22;66659.72;;;12.75;100.00
19890;BME280;10107;51.198;6.824;2024-03-29T10:12:23;66673.19;;;13.12;100.00
19890;BME280;10107;51.198;6.824;2024-03-29T10:16:29;66658.25;;;13.15;100.00
19890;BME280;10107;51.198;6.824;2024-03-29T10:20:31;66667.13;;;13.22;100.00
19890;BME280;10107;51.198;6.824;2024-03-29T10:24:33;66698.81;;;13.22;100.00
19890;BME280;10107;51.198;6.824;2024-03-29T10:28:36;66700.56;;;13.24;100.00
19890;BME280;10107;51.198;6.824;2024-03-29T10:32:39;66681.69;;;13.12;100.00
19890;BME280;10107;51.198;6.824;2024-03-29T10:36:41;66668.09;;;12.96;100.00
19890;BME280;10107;51.198;6.824;2024-03-29T10:40:42;66726.69;;;13.21;100.00
19890;BME280;10107;51.198;6.824;2024-03-29T10:44:47;66651.53;;;13.64;100.00
19890;BME280;10107;51.198;6.824;2024-03-29T10:48:51;66795.03;;;14.36;100.00
19890;BME280;10107;51.198;6.824;2024-03-29T10:52:53;66896.34;;;15.03;100.00
19890;BME280;10107;51.198;6.824;2024-03-29T10:56:59;66941.41;;;15.56;100.00
19890;BME280;10107;51.198;6.824;2024-03-29T11:01:04;66905.47;;;15.52;100.00
19890;BME280;10107;51.198;6.824;2024-03-29T11:05:12;66905.34;;;15.34;100.00
19890;BME280;10107;51.198;6.824;2024-03-29T11:09:15;66878.84;;;15.34;100.00
19890;BME280;10107;51.198;6.824;2024-03-29T11:13:25;66871.81;;;15.37;100.00
19890;BME280;10107;51.198;6.824;2024-03-29T11:17:29;66926.72;;;15.66;100.00
19890;BME280;10107;51.198;6.824;2024-03-29T11:21:33;66962.28;;;16.06;100.00
19890;BME280;10107;51.198;6.824;2024-03-29T11:25:39;66974.78;;;16.35;95.59
19890;BME280;10107;51.198;6.824;2024-03-29T11:29:41;67017.84;;;16.31;89.49
19890;BME280;10107;51.198;6.824;2024-03-29T11:33:45;67025.09;;;16.74;89.31
19890;BME280;10107;51.198;6.824;2024-03-29T11:37:58;67038.53;;;16.44;83.32
19890;BME280;10107;51.198;6.824;2024-03-29T11:42:01;66987.38;;;16.16;84.78
19890;BME280;10107;51.198;6.824;2024-03-29T11:46:05;66962.88;;;16.11;84.28
19890;BME280;10107;51.198;6.824;2024-03-29T11:50:07;67008.75;;;16.44;85.68
19890;BME280;10107;51.198;6.824;2024-03-29T11:54:10;67074.03;;;16.66;86.30
19890;BME280;10107;51.198;6.824;2024-03-29T11:58:12;67053.13;;;16.73;84.08
19890;BME280;10107;51.198;6.824;2024-03-29T12:02:14;67025.59;;;16.52;84.18
19890;BME280;10107;51.198;6.824;2024-03-29T12:06:15;66972.81;;;15.88;88.29
19890;BME280;10107;51.198;6.824;2024-03-29T12:10:20;66905.31;;;15.24;94.51
19890;BME280;10107;51.198;6.824;2024-03-29T12:14:22;66882.22;;;15.00;96.02
19890;BME280;10107;51.198;6.824;2024-03-29T12:18:25;66853.88;;;14.80;97.62
19890;BME280;10107;51.198;6.824;2024-03-29T12:22:28;66874.06;;;14.63;97.86
19890;BME280;10107;51.198;6.824;2024-03-29T12:26:31;66842.75;;;14.45;96.71
19890;BME280;10107;51.198;6.824;2024-03-29T12:30:33;66825.06;;;14.39;99.48
19890;BME280;10107;51.198;6.824;2024-03-29T12:34:35;66859.69;;;14.71;98.71
19890;BME280;10107;51.198;6.824;2024-03-29T12:38:36;66856.81;;;14.82;94.17
19890;BME280;10107;51.198;6.824;2024-03-29T12:42:39;66857.31;;;14.64;95.22
19890;BME280;10107;51.198;6.824;2024-03-29T12:46:41;66822.16;;;14.45;97.15
19890;BME280;10107;51.198;6.824;2024-03-29T12:50:44;66831.88;;;14.47;99.25
19890;BME280;10107;51.198;6.824;2024-03-29T12:54:46;66869.84;;;14.50;99.32
19890;BME280;10107;51.198;6.824;2024-03-29T12:58:49;66885.09;;;14.84;97.67
19890;BME280;10107;51.198;6.824;2024-03-29T13:02:50;66912.38;;;15.26;93.59
19890;BME280;10107;51.198;6.824;2024-03-29T13:06:52;66942.59;;;15.52;90.09
19890;BME280;10107;51.198;6.824;2024-03-29T13:10:54;66941.41;;;15.56;87.43
19890;BME280;10107;51.198;6.824;2024-03-29T13:15:02;66896.53;;;15.35;87.71
19890;BME280;10107;51.198;6.824;2024-03-29T13:19:04;66895.03;;;15.27;88.68
19890;BME280;10107;51.198;6.824;2024-03-29T13:23:06;66881.16;;;15.22;90.68
19890;BME280;10107;51.198;6.824;2024-03-29T13:27:08;66952.78;;;15.93;86.66
19890;BME280;10107;51.198;6.824;2024-03-29T13:31:11;67040.47;;;16.88;83.75
19890;BME280;10107;51.198;6.824;2024-03-29T13:35:13;67138.41;;;17.38;80.44
19890;BME280;10107;51.198;6.824;2024-03-29T13:39:14;67141.09;;;17.38;78.46
19890;BME280;10107;51.198;6.824;2024-03-29T13:43:16;67090.44;;;16.96;83.44
19890;BME280;10107;51.198;6.824;2024-03-29T13:47:19;67043.66;;;16.70;85.15
19890;BME280;10107;51.198;6.824;2024-03-29T13:51:21;67065.28;;;16.86;83.13
19890;BME280;10107;51.198;6.824;2024-03-29T13:55:23;67081.38;;;17.28;79.79
19890;BME280;10107;51.198;6.824;2024-03-29T13:59:27;67190.19;;;17.53;75.56
19890;BME280;10107;51.198;6.824;2024-03-29T14:03:30;67149.38;;;17.45;71.36
19890;BME280;10107;51.198;6.824;2024-03-29T14:07:32;67126.81;;;17.16;70.66
19890;BME280;10107;51.198;6.824;2024-03-29T14:11:34;67100.84;;;17.26;71.11
19890;BME280;10107;51.198;6.824;2024-03-29T14:15:35;67116.56;;;17.37;70.29
19890;BME280;10107;51.198;6.824;2024-03-29T14:19:39;67137.31;;;17.65;68.17
19890;BME280;10107;51.198;6.824;2024-03-29T14:23:40;67195.94;;;17.88;67.46
19890;BME280;10107;51.198;6.824;2024-03-29T14:27:42;67139.09;;;17.61;67.63
19890;BME280;10107;51.198;6.824;2024-03-29T14:31:54;67093.50;;;17.40;68.31
19890;BME280;10107;51.198;6.824;2024-03-29T14:35:57;67121.84;;;17.33;69.78
19890;BME280;10107;51.198;6.824;2024-03-29T14:39:59;67152.84;;;17.25;73.63
19890;BME280;10107;51.198;6.824;2024-03-29T14:44:00;67094.22;;;16.83;73.75
19890;BME280;10107;51.198;6.824;2024-03-29T14:48:03;67051.34;;;16.72;75.50
19890;BME280;10107;51.198;6.824;2024-03-29T14:52:06;67028.28;;;16.61;74.89
19890;BME280;10107;51.198;6.824;2024-03-29T14:56:07;67039.09;;;16.40;76.54
19890;BME280;10107;51.198;6.824;2024-03-29T15:00:10;67028.66;;;16.11;77.42
19890;BME280;10107;51.198;6.824;2024-03-29T15:04:11;66964.25;;;15.87;82.20
19890;BME280;10107;51.198;6.824;2024-03-29T15:08:14;66986.88;;;15.72;88.65
19890;BME280;10107;51.198;6.824;2024-03-29T15:12:18;66918.44;;;15.54;91.23
19890;BME280;10107;51.198;6.824;2024-03-29T15:16:19;66926.66;;;15.52;91.71
19890;BME280;10107;51.198;6.824;2024-03-29T15:20:21;66939.31;;;15.47;91.45
19890;BME280;10107;51.198;6.824;2024-03-29T15:24:24;66914.50;;;15.35;91.79
19890;BME280;10107;51.198;6.824;2024-03-29T15:28:26;66917.13;;;15.30;91.63
19890;BME280;10107;51.198;6.824;2024-03-29T15:32:46;66896.09;;;15.05;92.66
19890;BME280;10107;51.198;6.824;2024-03-29T15:36:47;66887.44;;;14.86;94.91
19890;BME280;10107;51.198;6.824;2024-03-29T15:40:54;66853.44;;;14.59;95.05
19890;BME280;10107;51.198;6.824;2024-03-29T15:44:55;66863.06;;;14.51;97.19
19890;BME280;10107;51.198;6.824;2024-03-29T15:48:57;66844.19;;;14.39;97.89
19890;BME280;10107;51.198;6.824;2024-03-29T15:52:59;66797.66;;;14.26;99.40
19890;BME280;10107;51.198;6.824;2024-03-29T15:57:03;66796.75;;;14.28;98.84
19890;BME280;10107;51.198;6.824;2024-03-29T16:01:04;66794.44;;;14.31;98.57
19890;BME280;10107;51.198;6.824;2024-03-29T16:05:07;66831.13;;;14.23;100.00
19890;BME280;10107;51.198;6.824;2024-03-29T16:09:09;66806.38;;;14.16;100.00
19890;BME280;10107;51.198;6.824;2024-03-29T16:13:11;66777.50;;;14.04;100.00
19890;BME280;10107;51.198;6.824;2024-03-29T16:17:13;66771.25;;;13.92;100.00
19890;BME280;10107;51.198;6.824;2024-03-29T16:21:15;66754.75;;;13.82;100.00
19890;BME280;10107;51.198;6.824;2024-03-29T16:25:17;66738.81;;;13.73;100.00
19890;BME280;10107;51.198;6.824;2024-03-29T16:29:19;66724.16;;;13.79;100.00
19890;BME280;10107;51.198;6.824;2024-03-29T16:33:21;66753.56;;;13.81;100.00
19890;BME280;10107;51.198;6.824;2024-03-29T16:37:23;66758.50;;;13.74;100.00
19890;BME280;10107;51.198;6.824;2024-03-29T16:41:24;66716.41;;;13.58;100.00
19890;BME280;10107;51.198;6.824;2024-03-29T16:45:27;66709.56;;;13.45;100.00
19890;BME280;10107;51.198;6.824;2024-03-29T16:49:29;66719.44;;;13.31;100.00
19890;BME280;10107;51.198;6.824;2024-03-29T16:53:30;66704.34;;;13.16;100.00
19890;BME280;10107;51.198;6.824;2024-03-29T16:57:32;66678.72;;;13.05;100.00
19890;BME280;10107;51.198;6.824;2024-03-29T17:01:34;66683.66;;;12.98;100.00
19890;BME280;10107;51.198;6.824;2024-03-29T17:05:35;66654.00;;;12.93;100.00
19890;BME280;10107;51.198;6.824;2024-03-29T17:09:38;66657.44;;;12.86;100.00
19890;BME280;10107;51.198;6.824;2024-03-29T17:13:40;66662.13;;;12.81;100.00
19890;BME280;10107;51.198;6.824;2024-03-29T17:17:43;66650.63;;;12.74;100.00
19890;BME280;10107;51.198;6.824;2024-03-29T17:21:45;66630.38;;;12.72;100.00
19890;BME280;10107;51.198;6.824;2024-03-29T17:25:45;66610.41;;;12.68;100.00
19890;BME280;10107;51.198;6.824;2024-03-29T17:29:47;66636.19;;;12.63;100.00
19890;BME280;10107;51.198;6.824;2024-03-29T17:33:50;66627.94;;;12.61;100.00
19890;BME280;10107;51.198;6.824;2024-03-29T17:37:51;66634.31;;;12.53;100.00
19890;BME280;10107;51.198;6.824;2024-03-29T17:41:53;66606.44;;;12.49;100.00
19890;BME280;10107;51.198;6.824;2024-03-29T17:45:54;66618.44;;;12.43;100.00
19890;BME280;10107;51.198;6.824;2024-03-29T17:49:58;66623.66;;;12.39;100.00
19890;BME280;10107;51.198;6.824;2024-03-29T17:54:00;66562.09;;;12.36;100.00
19890;BME280;10107;51.198;6.824;2024-03-29T17:58:01;66610.13;;;12.32;100.00
19890;BME280;10107;51.198;6.824;2024-03-29T18:02:03;66582.81;;;12.24;100.00
19890;BME280;10107;51.198;6.824;2024-03-29T18:06:06;66567.81;;;12.18;100.00
19890;BME280;10107;51.198;6.824;2024-03-29T18:10:09;66569.25;;;12.12;100.00
19890;BME280;10107;51.198;6.824;2024-03-29T18:14:11;66588.25;;;12.08;100.00
19890;BME280;10107;51.198;6.824;2024-03-29T18:18:12;66551.28;;;12.03;100.00
19890;BME280;10107;51.198;6.824;2024-03-29T18:22:16;66582.06;;;12.05;100.00
19890;BME280;10107;51.198;6.824;2024-03-29T18:26:17;66589.34;;;12.00;100.00
19890;BME280;10107;51.198;6.824;2024-03-29T18:30:19;66564.72;;;11.97;100.00
19890;BME280;10107;51.198;6.824;2024-03-29T18:34:21;66541.25;;;11.95;100.00
19890;BME280;10107;51.198;6.824;2024-03-29T18:38:24;66561.72;;;11.89;100.00
19890;BME280;10107;51.198;6.824;2024-03-29T18:42:25;66545.84;;;11.85;100.00
19890;BME280;10107;51.198;6.824;2024-03-29T18:46:27;66553.41;;;11.78;100.00
19890;BME280;10107;51.198;6.824;2024-03-29T18:50:29;66527.88;;;11.72;100.00
19890;BME280;10107;51.198;6.824;2024-03-29T18:54:31;66501.16;;;11.64;100.00
19890;BME280;10107;51.198;6.824;2024-03-29T18:58:33;66533.34;;;11.60;100.00
19890;BME280;10107;51.198;6.824;2024-03-29T19:02:35;66499.31;;;11.54;100.00
19890;BME280;10107;51.198;6.824;2024-03-29T19:06:36;66480.78;;;11.44;100.00
19890;BME280;10107;51.198;6.824;2024-03-29T19:10:40;66457.56;;;11.31;100.00
19890;BME280;10107;51.198;6.824;2024-03-29T19:14:41;66461.00;;;11.20;100.00
19890;BME280;10107;51.198;6.824;2024-03-29T19:18:44;66466.19;;;11.11;100.00
19890;BME280;10107;51.198;6.824;2024-03-29T19:22:46;66441.59;;;11.08;100.00
19890;BME280;10107;51.198;6.824;2024-03-29T19:26:51;66456.47;;;11.05;100.00
19890;BME280;10107;51.198;6.824;2024-03-29T19:30:53;66438.59;;;11.01;100.00
19890;BME280;10107;51.198;6.824;2024-03-29T19:34:55;66458.44;;;10.95;100.00
19890;BME280;10107;51.198;6.824;2024-03-29T19:38:57;66387.59;;;10.88;100.00
19890;BME280;10107;51.198;6.824;2024-03-29T19:43:00;66410.38;;;10.85;100.00
19890;BME280;10107;51.198;6.824;2024-03-29T19:47:01;66455.41;;;10.83;100.00
19890;BME280;10107;51.198;6.824;2024-03-29T19:51:03;66421.16;;;10.79;100.00
19890;BME280;10107;51.198;6.824;2024-03-29T19:55:05;66437.44;;;10.70;100.00
19890;BME280;10107;51.198;6.824;2024-03-29T19:59:08;66402.59;;;10.65;100.00
19890;BME280;10107;51.198;6.824;2024-03-29T20:03:11;66425.06;;;10.59;100.00
19890;BME280;10107;51.198;6.824;2024-03-29T20:07:13;66401.06;;;10.57;100.00
19890;BME280;10107;51.198;6.824;2024-03-29T20:11:15;66403.69;;;10.57;100.00
19890;BME280;10107;51.198;6.824;2024-03-29T20:15:18;66422.97;;;10.55;100.00
19890;BME280;10107;51.198;6.824;2024-03-29T20:19:20;66401.63;;;10.53;100.00
19890;BME280;10107;51.198;6.824;2024-03-29T20:23:26;66414.44;;;10.50;100.00
19890;BME280;10107;51.198;6.824;2024-03-29T20:27:28;66416.75;;;10.47;100.00
19890;BME280;10107;51.198;6.824;2024-03-29T20:31:33;66395.69;;;10.43;100.00
19890;BME280;10107;51.198;6.824;2024-03-29T20:35:38;66381.91;;;10.38;100.00
19890;BME280;10107;51.198;6.824;2024-03-29T20:39:40;66387.13;;;10.33;100.00
19890;BME280;10107;51.198;6.824;2024-03-29T20:43:42;66361.41;;;10.34;100.00
19890;BME280;10107;51.198;6.824;2024-03-29T20:47:45;66401.72;;;10.32;100.00
19890;BME280;10107;51.198;6.824;2024-03-29T20:51:46;66362.53;;;10.30;100.00
19890;BME280;10107;51.198;6.824;2024-03-29T20:55:48;66341.75;;;10.28;100.00
19890;BME280;10107;51.198;6.824;2024-03-29T20:59:49;66408.34;;;10.26;100.00
19890;BME280;10107;51.198;6.824;2024-03-29T21:03:51;66393.69;;;10.23;100.00
19890;BME280;10107;51.198;6.824;2024-03-29T21:08:10;66332.91;;;10.20;100.00
19890;BME280;10107;51.198;6.824;2024-03-29T21:12:11;66361.53;;;10.18;100.00
19890;BME280;10107;51.198;6.824;2024-03-29T21:16:14;66361.22;;;10.15;100.00
19890;BME280;10107;51.198;6.824;2024-03-29T21:20:16;66380.78;;;10.16;100.00